KFME/FME METAR and TAF weather

Enter ICAO airport designator
Station Type Date Time Source
KFME METAR 2021/02/25 02:15 UTC NOAA

KFME 250215Z AUTO 00000KT 10SM CLR 03/01 A2984 RMK AO1


Station Type Date Time Source
KFME Decoded METAR 2021/02/25 02:15 UTC NOAA

Fort Meade / Tipton, MD, United States (KFME) 39-05N 076-46W
Feb 24, 2021 - 09:15 PM EST / 2021.02.25 0215 UTC
Wind: Calm:0
Visibility: 10 mile(s):0
Sky conditions: clear
Temperature: 37 F (3 C)
Dew Point: 33 F (1 C)
Relative Humidity: 86%
Pressure (altimeter): 29.84 in. Hg (1010 hPa)
ob: KFME 250215Z AUTO 00000KT 10SM CLR 03/01 A2984 RMK AO1
cycle: 2

Station Type Date Time Source
KFME TAF UTC NOAA

Error!

Example: see airport list